createdAt,value
2017-12-22T00:01:10.011Z,6.20
2017-12-22T00:03:38.291Z,6.20
2017-12-22T00:08:42.201Z,6.10
2017-12-22T00:11:12.275Z,6.20
2017-12-22T00:13:47.887Z,6.10
2017-12-22T00:18:57.317Z,6.10
2017-12-22T00:21:26.748Z,6.10
2017-12-22T00:23:55.032Z,6.10
2017-12-22T00:26:25.971Z,6.10
2017-12-22T00:28:56.544Z,6.10
2017-12-22T00:31:25.649Z,6.10
2017-12-22T00:33:55.148Z,6.00
2017-12-22T00:36:27.355Z,6.00
2017-12-22T00:38:57.863Z,6.00
2017-12-22T00:41:27.173Z,6.00
2017-12-22T00:43:56.228Z,6.00
2017-12-22T00:46:24.797Z,6.00
2017-12-22T00:48:54.562Z,5.90
2017-12-22T00:51:23.429Z,5.80
2017-12-22T00:53:52.656Z,5.80
2017-12-22T00:56:23.032Z,5.80
2017-12-22T00:58:52.515Z,5.80
2017-12-22T01:01:21.149Z,5.80
2017-12-22T01:03:49.565Z,5.90
2017-12-22T01:06:18.804Z,5.90
2017-12-22T01:08:48.148Z,5.90
2017-12-22T01:11:17.332Z,5.80
2017-12-22T01:14:05.836Z,5.80
2017-12-22T01:16:40.410Z,5.70
2017-12-22T01:19:17.281Z,5.70
2017-12-22T01:21:48.573Z,5.70
2017-12-22T01:24:17.903Z,5.80
2017-12-22T01:26:45.445Z,5.80
2017-12-22T01:29:14.432Z,5.90
2017-12-22T01:31:44.074Z,5.80
2017-12-22T01:34:13.949Z,5.90
2017-12-22T01:36:42.856Z,5.90
2017-12-22T01:39:13.100Z,5.80
2017-12-22T01:41:42.574Z,5.80
2017-12-22T01:44:15.930Z,5.80
2017-12-22T01:46:46.603Z,5.90
2017-12-22T01:49:18.492Z,5.90
2017-12-22T01:51:49.424Z,5.80
2017-12-22T01:54:18.362Z,5.80
2017-12-22T01:56:45.955Z,5.80
2017-12-22T01:59:14.322Z,5.90
2017-12-22T02:01:42.715Z,5.90
2017-12-22T02:04:14.087Z,5.80
2017-12-22T02:06:42.129Z,5.80
2017-12-22T02:09:09.936Z,5.70
2017-12-22T02:11:39.190Z,5.70
2017-12-22T02:14:07.739Z,5.70
2017-12-22T02:16:37.453Z,5.70
2017-12-22T02:19:06.009Z,5.80
2017-12-22T02:21:33.613Z,5.80
2017-12-22T02:24:03.379Z,5.70
2017-12-22T02:26:33.264Z,5.70
2017-12-22T02:29:00.824Z,5.70
2017-12-22T02:31:29.169Z,5.70
2017-12-22T02:33:59.466Z,5.80
2017-12-22T02:36:29.644Z,5.80
2017-12-22T02:39:04.032Z,5.90
2017-12-22T02:41:37.544Z,5.90
2017-12-22T02:44:06.715Z,5.90
2017-12-22T02:46:37.553Z,5.90
2017-12-22T02:49:06.894Z,5.90
2017-12-22T02:51:35.458Z,5.90
2017-12-22T02:54:07.837Z,5.90
2017-12-22T02:56:40.272Z,5.90
2017-12-22T02:59:09.943Z,5.90
2017-12-22T03:01:38.491Z,6.00
2017-12-22T03:04:06.594Z,5.90
2017-12-22T03:06:34.181Z,5.90
2017-12-22T03:09:01.717Z,5.70
2017-12-22T03:11:32.872Z,5.70
2017-12-22T03:14:01.338Z,5.80
2017-12-22T03:16:30.109Z,5.80
2017-12-22T03:18:59.293Z,5.80
2017-12-22T03:21:31.800Z,5.80
2017-12-22T03:24:02.043Z,5.80
2017-12-22T03:26:33.124Z,5.90
2017-12-22T03:29:06.879Z,5.90
2017-12-22T03:31:35.218Z,6.00
2017-12-22T03:34:06.653Z,5.90
2017-12-22T03:36:36.419Z,5.90
2017-12-22T03:39:06.985Z,5.90
2017-12-22T03:41:36.796Z,5.80
2017-12-22T03:44:10.554Z,5.90
2017-12-22T03:46:41.593Z,5.90
2017-12-22T03:49:11.180Z,5.90
2017-12-22T03:51:40.948Z,5.80
2017-12-22T03:54:09.590Z,5.80
2017-12-22T03:56:38.647Z,5.80
2017-12-22T03:59:07.964Z,5.90
2017-12-22T04:01:38.439Z,5.90
2017-12-22T04:04:09.279Z,5.90
2017-12-22T04:06:37.955Z,5.90
2017-12-22T04:09:06.087Z,6.00
2017-12-22T04:11:35.667Z,5.90
2017-12-22T04:14:05.662Z,5.90
2017-12-22T04:16:34.590Z,5.90
2017-12-22T04:19:06.144Z,5.80
2017-12-22T04:21:34.633Z,5.80
2017-12-22T04:24:03.312Z,6.00
2017-12-22T04:26:31.088Z,5.90
2017-12-22T04:28:59.492Z,6.00
2017-12-22T04:31:28.048Z,5.90
2017-12-22T04:33:56.540Z,5.80
2017-12-22T04:36:24.087Z,5.80
2017-12-22T04:38:52.227Z,5.70
2017-12-22T04:41:22.888Z,5.80
2017-12-22T04:43:50.473Z,5.80
2017-12-22T04:46:18.077Z,5.90
2017-12-22T04:48:46.516Z,5.90
2017-12-22T04:51:15.486Z,5.90
2017-12-22T04:53:49.955Z,5.80
2017-12-22T04:56:17.496Z,6.10
2017-12-22T04:58:46.452Z,6.10
2017-12-22T05:01:14.766Z,6.10
2017-12-22T05:03:42.374Z,6.10
2017-12-22T05:06:10.205Z,6.10
2017-12-22T05:08:39.488Z,6.20
2017-12-22T05:11:07.809Z,6.10
2017-12-22T05:13:36.444Z,6.10
2017-12-22T05:16:08.529Z,6.00
2017-12-22T05:18:38.145Z,6.00
2017-12-22T05:21:05.685Z,5.90
2017-12-22T05:23:33.328Z,5.90
2017-12-22T05:26:02.529Z,5.80
2017-12-22T05:28:30.814Z,5.90
2017-12-22T05:31:00.020Z,6.10
2017-12-22T05:33:27.545Z,6.00
2017-12-22T05:36:01.967Z,6.00
2017-12-22T05:38:33.014Z,6.10
2017-12-22T05:41:01.362Z,6.10
2017-12-22T05:43:29.817Z,6.10
2017-12-22T05:45:58.729Z,6.10
2017-12-22T05:48:28.103Z,6.20
2017-12-22T05:50:56.518Z,6.10
2017-12-22T05:53:25.921Z,6.20
2017-12-22T05:55:55.207Z,6.20
2017-12-22T05:58:23.517Z,6.20
2017-12-22T06:00:53.608Z,6.30
2017-12-22T06:03:22.539Z,6.20
2017-12-22T06:05:50.075Z,6.30
2017-12-22T06:08:18.335Z,6.10
2017-12-22T06:10:46.628Z,5.90
2017-12-22T06:13:18.084Z,5.90
2017-12-22T06:15:47.950Z,6.10
2017-12-22T06:18:15.520Z,6.00
2017-12-22T06:20:43.095Z,6.00
2017-12-22T06:23:11.946Z,6.10
2017-12-22T06:25:42.456Z,5.80
2017-12-22T06:28:12.195Z,5.80
2017-12-22T06:30:40.339Z,5.80
2017-12-22T06:33:07.913Z,5.90
2017-12-22T06:35:35.444Z,5.80
2017-12-22T06:38:04.691Z,5.80
2017-12-22T06:40:32.671Z,5.80
2017-12-22T06:43:01.085Z,5.80
2017-12-22T06:45:28.855Z,5.90
2017-12-22T06:47:57.148Z,5.90
2017-12-22T06:50:25.595Z,5.90
2017-12-22T06:52:53.671Z,5.90
2017-12-22T06:55:23.808Z,6.00
2017-12-22T06:57:51.402Z,6.00
2017-12-22T07:00:19.782Z,6.00
2017-12-22T07:02:48.989Z,6.00
2017-12-22T07:05:17.502Z,6.00
2017-12-22T07:07:46.723Z,6.10
2017-12-22T07:10:15.695Z,6.10
2017-12-22T07:12:44.223Z,6.10
2017-12-22T07:15:13.342Z,6.00
2017-12-22T07:17:42.047Z,6.00
2017-12-22T07:20:10.528Z,6.20
2017-12-22T07:22:38.833Z,6.20
2017-12-22T07:25:06.932Z,6.20
2017-12-22T07:27:35.064Z,6.20
2017-12-22T07:30:03.452Z,6.20
2017-12-22T07:32:33.619Z,6.20
2017-12-22T07:35:01.206Z,6.40
2017-12-22T07:37:30.044Z,6.50
2017-12-22T07:39:57.628Z,6.40
2017-12-22T07:42:25.171Z,6.30
2017-12-22T07:44:52.748Z,6.30
2017-12-22T07:47:20.290Z,6.30
2017-12-22T07:49:47.820Z,6.30
2017-12-22T07:52:16.031Z,6.30
2017-12-22T07:54:44.900Z,6.50
2017-12-22T07:57:14.712Z,6.50
2017-12-22T07:59:42.271Z,6.50
2017-12-22T08:02:10.770Z,6.50
2017-12-22T08:04:38.309Z,6.50
2017-12-22T08:07:07.604Z,6.60
2017-12-22T08:09:35.132Z,6.60
2017-12-22T08:12:03.567Z,6.60
2017-12-22T08:14:31.090Z,6.50
2017-12-22T08:17:00.154Z,6.60
2017-12-22T08:19:27.681Z,6.70
2017-12-22T08:21:55.959Z,6.70
2017-12-22T08:24:25.035Z,6.70
2017-12-22T08:26:53.371Z,6.80
2017-12-22T08:29:20.925Z,6.70
2017-12-22T08:31:49.267Z,6.80
2017-12-22T08:34:26.538Z,6.80
2017-12-22T08:36:55.448Z,6.70
2017-12-22T08:39:26.940Z,6.70
2017-12-22T08:44:39.505Z,6.80
2017-12-22T08:47:09.044Z,6.80
2017-12-22T08:49:50.858Z,6.80
2017-12-22T08:52:29.607Z,6.90
2017-12-22T08:57:44.679Z,7.00
2017-12-22T09:00:13.602Z,7.00
2017-12-22T09:02:41.229Z,7.00
2017-12-22T09:05:09.543Z,7.00
2017-12-22T09:07:38.132Z,7.00
2017-12-22T09:10:16.282Z,7.00
2017-12-22T09:12:47.771Z,6.90
2017-12-22T09:15:18.457Z,6.90
2017-12-22T09:17:50.759Z,6.90
2017-12-22T09:20:22.739Z,6.90
2017-12-22T09:22:50.746Z,7.00
2017-12-22T09:25:19.555Z,7.00
2017-12-22T09:27:49.464Z,7.10
2017-12-22T09:30:21.119Z,7.00
2017-12-22T09:32:49.637Z,7.00
2017-12-22T09:35:17.915Z,7.10
2017-12-22T09:37:45.489Z,7.10
2017-12-22T09:40:13.033Z,7.10
2017-12-22T09:42:45.091Z,7.20
2017-12-22T09:45:13.408Z,7.20
2017-12-22T09:47:42.630Z,7.20
2017-12-22T09:50:10.170Z,7.30
2017-12-22T09:52:38.626Z,7.40
2017-12-22T09:55:07.153Z,7.40
2017-12-22T09:57:35.522Z,7.60
2017-12-22T10:00:03.082Z,7.60
2017-12-22T10:02:30.648Z,7.60
2017-12-22T10:04:58.200Z,7.70
2017-12-22T10:07:27.967Z,7.80
2017-12-22T10:09:59.630Z,7.90
2017-12-22T10:12:28.907Z,7.90
2017-12-22T10:15:00.159Z,8.00
2017-12-22T10:17:30.511Z,8.10
2017-12-22T10:19:58.158Z,8.10
2017-12-22T10:22:25.756Z,8.20
2017-12-22T10:24:53.828Z,8.20
2017-12-22T10:27:22.116Z,8.30
2017-12-22T10:29:50.432Z,8.30
2017-12-22T10:32:17.995Z,8.30
2017-12-22T10:34:48.040Z,8.40
2017-12-22T10:37:15.675Z,8.40
2017-12-22T10:39:43.220Z,8.40
2017-12-22T10:42:11.560Z,8.50
2017-12-22T10:44:39.930Z,8.50
2017-12-22T10:47:07.461Z,8.60
2017-12-22T10:49:35.025Z,8.60
2017-12-22T10:52:03.023Z,8.60
2017-12-22T10:54:30.629Z,8.60
2017-12-22T10:56:59.130Z,8.70
2017-12-22T10:59:27.499Z,8.70
2017-12-22T11:01:55.799Z,8.60
2017-12-22T11:04:24.148Z,8.50
2017-12-22T11:06:51.675Z,8.50
2017-12-22T11:09:19.244Z,8.40
2017-12-22T11:11:48.815Z,8.50
2017-12-22T11:14:17.087Z,8.40
2017-12-22T11:16:45.475Z,8.60
2017-12-22T11:19:13.005Z,8.60
2017-12-22T11:21:40.596Z,8.70
2017-12-22T11:24:09.079Z,8.90
2017-12-22T11:26:37.410Z,9.10
2017-12-22T11:29:05.804Z,9.10
2017-12-22T11:31:33.381Z,9.20
2017-12-22T11:34:01.828Z,9.20
2017-12-22T11:36:31.097Z,9.20
2017-12-22T11:38:59.206Z,9.20
2017-12-22T11:41:26.746Z,9.30
2017-12-22T11:43:54.347Z,9.10
2017-12-22T11:46:23.299Z,9.00
2017-12-22T11:48:52.130Z,8.90
2017-12-22T11:51:19.658Z,8.80
2017-12-22T11:53:48.781Z,8.60
2017-12-22T11:56:17.097Z,8.60
2017-12-22T11:58:44.670Z,8.50
2017-12-22T12:01:12.442Z,8.60
2017-12-22T12:03:40.020Z,8.60
2017-12-22T12:06:07.563Z,8.70
2017-12-22T12:08:35.159Z,8.80
2017-12-22T12:11:02.684Z,8.80
2017-12-22T12:13:32.037Z,8.80
2017-12-22T12:15:59.573Z,8.70
2017-12-22T12:18:27.104Z,8.60
2017-12-22T12:20:54.673Z,8.50
2017-12-22T12:23:22.208Z,8.50
2017-12-22T12:25:50.723Z,8.50
2017-12-22T12:28:18.375Z,8.50
2017-12-22T12:30:46.731Z,8.50
2017-12-22T12:33:15.208Z,8.50
2017-12-22T12:35:42.771Z,8.40
2017-12-22T12:38:10.628Z,8.40
2017-12-22T12:40:38.201Z,8.40
2017-12-22T12:43:06.491Z,8.40
2017-12-22T12:45:36.766Z,8.40
2017-12-22T12:48:04.287Z,8.50
2017-12-22T12:50:32.644Z,8.60
2017-12-22T12:53:00.174Z,8.50
2017-12-22T12:55:27.782Z,8.50
2017-12-22T12:57:56.157Z,8.50
2017-12-22T13:00:23.679Z,8.50
2017-12-22T13:02:52.021Z,8.60
2017-12-22T13:05:19.546Z,8.60
2017-12-22T13:07:47.901Z,8.60
2017-12-22T13:10:16.338Z,8.60
2017-12-22T13:12:44.636Z,8.70
2017-12-22T13:15:13.920Z,8.60
2017-12-22T13:17:41.681Z,8.50
2017-12-22T13:20:10.027Z,8.60
2017-12-22T13:22:37.596Z,8.60
2017-12-22T13:25:05.128Z,8.60
2017-12-22T13:27:32.692Z,8.60
2017-12-22T13:30:01.232Z,8.60
2017-12-22T13:32:29.420Z,8.70
2017-12-22T13:34:58.315Z,8.70
2017-12-22T13:37:26.648Z,8.70
2017-12-22T13:39:54.212Z,8.70
2017-12-22T13:42:21.805Z,8.70
2017-12-22T13:44:50.870Z,8.70
2017-12-22T13:47:20.127Z,8.70
2017-12-22T13:49:48.199Z,8.70
2017-12-22T13:52:16.816Z,8.70
2017-12-22T13:54:44.371Z,8.80
2017-12-22T13:57:11.957Z,8.70
2017-12-22T13:59:39.490Z,8.60
2017-12-22T14:02:07.036Z,8.60
2017-12-22T14:04:35.408Z,8.60
2017-12-22T14:07:06.013Z,8.60
2017-12-22T14:09:37.677Z,8.50
2017-12-22T14:12:05.785Z,8.60
2017-12-22T14:14:33.425Z,8.60
2017-12-22T14:17:01.303Z,8.50
2017-12-22T14:19:28.906Z,8.50
2017-12-22T14:21:56.434Z,8.60
2017-12-22T14:24:27.852Z,8.70
2017-12-22T14:26:55.451Z,8.70
2017-12-22T14:29:23.516Z,8.70
2017-12-22T14:31:53.627Z,8.70
2017-12-22T14:34:23.290Z,8.50
2017-12-22T14:36:54.314Z,8.50
2017-12-22T14:39:22.907Z,8.40
2017-12-22T14:41:50.634Z,8.40
2017-12-22T14:44:18.997Z,8.40
2017-12-22T14:46:49.123Z,8.40
2017-12-22T14:49:18.867Z,8.40
2017-12-22T14:51:47.204Z,8.40
2017-12-22T14:54:14.908Z,8.40
2017-12-22T14:56:43.130Z,8.50
2017-12-22T14:59:10.710Z,8.50
2017-12-22T15:01:38.255Z,8.50
2017-12-22T15:04:05.820Z,8.50
2017-12-22T15:06:34.444Z,8.50
2017-12-22T15:09:03.607Z,8.40
2017-12-22T15:11:32.388Z,8.40
2017-12-22T15:14:01.040Z,8.30
2017-12-22T15:16:29.631Z,8.40
2017-12-22T15:18:58.248Z,8.40
2017-12-22T15:21:26.724Z,8.40
2017-12-22T15:23:54.408Z,8.40
2017-12-22T15:26:21.961Z,8.30
2017-12-22T15:28:49.656Z,8.30
2017-12-22T15:31:17.233Z,8.30
2017-12-22T15:33:45.778Z,8.30
2017-12-22T15:36:14.070Z,8.40
2017-12-22T15:38:42.485Z,8.40
2017-12-22T15:41:10.008Z,8.30
2017-12-22T15:43:37.676Z,8.20
2017-12-22T15:46:05.817Z,8.20
2017-12-22T15:48:33.347Z,8.20
2017-12-22T15:51:00.920Z,8.20
2017-12-22T15:53:28.491Z,8.20
2017-12-22T15:55:56.842Z,8.10
2017-12-22T15:58:25.387Z,8.10
2017-12-22T16:00:52.951Z,8.10
2017-12-22T16:03:21.267Z,8.10
2017-12-22T16:05:50.573Z,8.20
2017-12-22T16:08:19.359Z,8.20
2017-12-22T16:10:47.876Z,8.10
2017-12-22T16:13:16.172Z,8.10
2017-12-22T16:15:45.255Z,8.10
2017-12-22T16:18:16.072Z,8.10
2017-12-22T16:20:43.639Z,8.20
2017-12-22T16:23:11.165Z,8.20
2017-12-22T16:25:40.302Z,8.20
2017-12-22T16:28:07.827Z,8.20
2017-12-22T16:30:36.730Z,8.20
2017-12-22T16:33:04.322Z,8.20
2017-12-22T16:35:31.891Z,8.20
2017-12-22T16:37:59.461Z,8.10
2017-12-22T16:40:28.200Z,8.10
2017-12-22T16:42:56.291Z,8.10
2017-12-22T16:45:25.855Z,8.00
2017-12-22T16:47:53.476Z,8.10
2017-12-22T16:50:23.138Z,8.00
2017-12-22T16:52:50.747Z,8.00
2017-12-22T16:55:18.280Z,8.00
2017-12-22T16:57:46.780Z,8.00
2017-12-22T17:00:15.260Z,8.00
2017-12-22T17:02:42.831Z,7.90
2017-12-22T17:05:10.367Z,7.90
2017-12-22T17:07:38.728Z,8.00
2017-12-22T17:10:06.258Z,8.00
2017-12-22T17:12:33.836Z,8.00
2017-12-22T17:15:01.939Z,8.00
2017-12-22T17:17:30.360Z,8.10
2017-12-22T17:19:58.023Z,8.00
2017-12-22T17:22:25.565Z,8.00
2017-12-22T17:24:53.820Z,8.00
2017-12-22T17:27:22.204Z,7.90
2017-12-22T17:29:50.534Z,8.00
2017-12-22T17:32:18.829Z,7.90
2017-12-22T17:34:46.357Z,8.00
2017-12-22T17:37:14.742Z,7.90
2017-12-22T17:39:43.419Z,7.90
2017-12-22T17:42:11.218Z,7.90
2017-12-22T17:44:38.798Z,7.90
2017-12-22T17:47:07.314Z,8.00
2017-12-22T17:49:36.760Z,8.00
2017-12-22T17:52:04.856Z,7.90
2017-12-22T17:54:32.434Z,8.00
2017-12-22T17:57:00.855Z,8.00
2017-12-22T17:59:28.384Z,8.10
2017-12-22T18:01:56.876Z,8.00
2017-12-22T18:04:24.459Z,8.00
2017-12-22T18:06:53.208Z,8.10
2017-12-22T18:09:21.541Z,8.00
2017-12-22T18:11:49.885Z,8.00
2017-12-22T18:14:18.132Z,7.90
2017-12-22T18:16:45.704Z,7.90
2017-12-22T18:19:14.006Z,7.90
2017-12-22T18:21:41.568Z,7.90
2017-12-22T18:24:09.986Z,7.90
2017-12-22T18:26:37.605Z,8.00
2017-12-22T18:29:05.896Z,7.90
2017-12-22T18:31:34.144Z,7.90
2017-12-22T18:34:02.581Z,8.00
2017-12-22T18:36:30.487Z,8.00
2017-12-22T18:38:58.286Z,8.10
2017-12-22T18:41:26.821Z,8.00
2017-12-22T18:43:56.179Z,8.00
2017-12-22T18:46:23.881Z,8.00
2017-12-22T18:48:54.439Z,8.00
2017-12-22T18:51:22.879Z,8.00
2017-12-22T18:53:50.807Z,8.00
2017-12-22T18:56:20.505Z,7.90
2017-12-22T18:58:49.035Z,8.00
2017-12-22T19:01:19.359Z,7.90
2017-12-22T19:03:47.146Z,7.90
2017-12-22T19:06:15.385Z,8.00
2017-12-22T19:08:43.725Z,8.10
2017-12-22T19:11:12.337Z,8.20
2017-12-22T19:13:40.779Z,8.00
2017-12-22T19:16:08.967Z,8.00
2017-12-22T19:18:37.636Z,7.90
2017-12-22T19:21:07.263Z,7.90
2017-12-22T19:23:35.214Z,7.90
2017-12-22T19:26:05.005Z,7.80
2017-12-22T19:28:34.920Z,7.70
2017-12-22T19:31:03.899Z,7.80
2017-12-22T19:33:31.507Z,7.70
2017-12-22T19:35:59.188Z,7.70
2017-12-22T19:38:27.843Z,7.70
2017-12-22T19:40:56.509Z,7.80
2017-12-22T19:43:25.033Z,7.80
2017-12-22T19:45:53.748Z,7.70
2017-12-22T19:48:22.285Z,7.60
2017-12-22T19:50:50.041Z,7.70
2017-12-22T19:53:20.944Z,7.70
2017-12-22T19:55:49.860Z,7.80
2017-12-22T19:58:21.631Z,7.70
2017-12-22T20:00:51.402Z,7.70
2017-12-22T20:03:28.272Z,7.70
2017-12-22T20:05:59.543Z,7.70
2017-12-22T20:08:27.228Z,7.70
2017-12-22T20:10:57.728Z,7.70
2017-12-22T20:13:30.272Z,7.70
2017-12-22T20:15:59.702Z,7.70
2017-12-22T20:18:27.765Z,7.70
2017-12-22T20:20:57.204Z,7.70
2017-12-22T20:23:25.779Z,7.80
2017-12-22T20:25:53.650Z,7.70
2017-12-22T20:28:22.386Z,7.70
2017-12-22T20:30:51.858Z,7.70
2017-12-22T20:33:21.531Z,7.70
2017-12-22T20:35:50.881Z,7.70
2017-12-22T20:38:23.004Z,7.70
2017-12-22T20:40:59.332Z,7.80
2017-12-22T20:43:40.623Z,7.70
2017-12-22T20:49:02.879Z,7.70
2017-12-22T20:51:34.394Z,7.80
2017-12-22T20:54:11.319Z,7.70
2017-12-22T20:56:40.864Z,7.70
2017-12-22T20:59:18.515Z,7.70
2017-12-22T21:01:53.064Z,7.70
2017-12-22T21:04:21.945Z,7.70
2017-12-22T21:06:52.228Z,7.60
2017-12-22T21:09:23.148Z,7.60
2017-12-22T21:11:53.618Z,7.70
2017-12-22T21:17:08.901Z,7.70
2017-12-22T21:19:43.143Z,7.70
2017-12-22T21:22:19.167Z,7.70
2017-12-22T21:24:53.729Z,7.70
2017-12-22T21:32:46.761Z,7.70
2017-12-22T21:35:15.480Z,7.70
2017-12-22T21:37:45.101Z,7.80
2017-12-22T21:40:16.472Z,7.70
2017-12-22T21:42:44.544Z,7.70
2017-12-22T21:45:12.769Z,7.70
2017-12-22T21:47:42.906Z,7.70
2017-12-22T21:50:13.316Z,7.80
2017-12-22T21:52:45.037Z,7.80
2017-12-22T21:55:15.511Z,7.60
2017-12-22T21:57:45.542Z,7.60
2017-12-22T22:00:17.503Z,7.60
2017-12-22T22:02:46.178Z,7.60
2017-12-22T22:05:14.611Z,7.70
2017-12-22T22:07:45.059Z,7.70
2017-12-22T22:10:14.153Z,7.50
2017-12-22T22:12:44.909Z,7.50
2017-12-22T22:15:13.858Z,7.50
2017-12-22T22:17:42.014Z,7.50
2017-12-22T22:20:09.601Z,7.50
2017-12-22T22:22:38.011Z,7.50
2017-12-22T22:25:06.545Z,7.40
2017-12-22T22:27:34.574Z,7.60
2017-12-22T22:30:02.183Z,7.60
2017-12-22T22:32:30.621Z,7.60
2017-12-22T22:34:58.979Z,7.60
2017-12-22T22:37:26.582Z,7.60
2017-12-22T22:39:54.179Z,7.60
2017-12-22T22:42:21.865Z,7.70
2017-12-22T22:44:50.701Z,7.70
2017-12-22T22:47:18.312Z,7.70
2017-12-22T22:49:48.030Z,7.60
2017-12-22T22:52:16.793Z,7.60
2017-12-22T22:54:44.426Z,7.60
2017-12-22T22:57:14.002Z,7.60
2017-12-22T22:59:41.628Z,7.50
2017-12-22T23:02:09.965Z,7.60
2017-12-22T23:04:38.428Z,7.60
2017-12-22T23:07:08.482Z,7.50
2017-12-22T23:09:36.218Z,7.40
2017-12-22T23:12:05.001Z,7.40
2017-12-22T23:14:33.487Z,7.40
2017-12-22T23:17:02.124Z,7.40
2017-12-22T23:19:30.638Z,7.30
2017-12-22T23:21:59.995Z,7.20
2017-12-22T23:24:28.486Z,7.30
2017-12-22T23:26:58.384Z,7.30
2017-12-22T23:29:26.228Z,7.30
2017-12-22T23:31:55.967Z,7.30
2017-12-22T23:34:23.973Z,7.40
2017-12-22T23:36:51.765Z,7.30
2017-12-22T23:39:19.652Z,7.30
2017-12-22T23:41:48.222Z,7.20
2017-12-22T23:44:16.099Z,7.30
2017-12-22T23:47:01.302Z,7.20
2017-12-22T23:49:29.874Z,7.20
2017-12-22T23:51:57.584Z,7.20
2017-12-22T23:54:26.088Z,7.30
2017-12-22T23:57:05.013Z,7.40
2017-12-22T23:59:33.796Z,7.30
